Time;durP1;ratioP1;P1;durP2;ratioP2;P2;SDS_P1;SDS_P2;PMS_P1;PMS_P2;Temp;Humidity;BMP_temperature;BMP_pressure;BME280_temperature;BME280_humidity;BME280_pressure;Samples;Min_cycle;Max_cycle;Signal;HPM_P1;HPM_P2
2021/12/29 00:00:58;;;;;;;;;;;2.60;99.90;;;;;;5032852;28;19913;-83
2021/12/29 00:03:24;;;;;;;;;;;2.60;99.90;;;;;;5033238;28;19924;-81
2021/12/29 00:05:49;;;;;;;;;;;2.60;99.90;;;;;;5033420;28;19986;-82
2021/12/29 00:08:14;;;;;;;;;;;2.60;99.90;;;;;;5035454;28;20370;-81
2021/12/29 00:10:40;;;;;;;;;;;2.60;99.90;;;;;;5034527;28;20495;-81
2021/12/29 00:13:06;;;;;;;;;;;2.60;99.90;;;;;;5036000;28;19913;-82
2021/12/29 00:15:32;;;;;;;;;;;2.60;99.90;;;;;;5048097;28;19956;-81
2021/12/29 00:17:58;;;;;;;;;;;2.60;99.90;;;;;;5035877;28;20649;-80
2021/12/29 00:20:28;;;;;;;;;;;2.60;99.90;;;;;;5036315;28;20098;-81
2021/12/29 00:22:57;;;;;;;;;;;2.60;99.90;;;;;;5034559;28;19913;-81
2021/12/29 00:25:22;;;;;;;;;;;2.60;99.90;;;;;;5035447;28;20359;-84
2021/12/29 00:27:48;;;;;;;;;;;2.60;99.90;;;;;;5032081;28;19920;-81
2021/12/29 00:30:13;;;;;;;;;;;2.60;99.90;;;;;;5033618;28;20420;-83
2021/12/29 00:32:39;;;;;;;;;;;2.60;99.90;;;;;;5035133;28;19921;-81
2021/12/29 00:35:05;;;;;;;;;;;2.60;99.90;;;;;;5035261;28;19952;-81
2021/12/29 00:37:30;;;;;;;;;;;2.60;99.90;;;;;;5034489;28;19919;-82
2021/12/29 00:39:56;;;;;;;;;;;2.60;99.90;;;;;;5047940;28;19912;-82
2021/12/29 00:42:21;;;;;;;;;;;2.60;99.90;;;;;;5031912;28;19920;-82
2021/12/29 00:44:47;;;;;;;;;;;2.60;99.90;;;;;;5035585;28;19913;-83
2021/12/29 00:47:12;;;;;;;;;;;2.60;99.90;;;;;;5032831;28;19919;-82
2021/12/29 00:49:38;;;;;;;;;;;2.60;99.90;;;;;;5033175;28;19909;-82
2021/12/29 00:52:06;;;;;;;;;;;2.60;99.90;;;;;;5033240;28;19909;-83
2021/12/29 00:54:32;;;;;;;;;;;2.60;99.90;;;;;;5032877;28;20006;-84
2021/12/29 00:56:57;;;;;;;;;;;2.60;99.90;;;;;;5033546;28;19913;-80
2021/12/29 00:59:23;;;;;;;;;;;2.60;99.90;;;;;;5030682;28;19913;-82
2021/12/29 01:01:50;;;;;;;;;;;2.60;99.90;;;;;;5032016;28;19913;-82
2021/12/29 01:04:15;;;;;;;;;;;2.60;99.90;;;;;;5037343;28;20033;-82
2021/12/29 01:06:41;;;;;;;;;;;2.60;99.90;;;;;;5037064;28;19917;-81
2021/12/29 01:09:06;;;;;;;;;;;2.60;99.90;;;;;;5033578;28;20168;-81
2021/12/29 01:11:32;;;;;;;;;;;2.70;99.90;;;;;;5038978;28;20428;-81
2021/12/29 01:13:58;;;;;;;;;;;2.70;99.90;;;;;;5033531;28;19921;-82
2021/12/29 01:18:58;;;;;;;;;;;2.70;99.90;;;;;;5056440;28;19912;-81
2021/12/29 01:21:24;;;;;;;;;;;2.70;99.90;;;;;;5037833;28;20000;-81
2021/12/29 01:23:49;;;;;;;;;;;2.70;99.90;;;;;;5037637;28;20311;-82
2021/12/29 01:26:17;;;;;;;;;;;2.60;99.90;;;;;;5023222;28;19912;-82
2021/12/29 01:28:43;;;;;;;;;;;2.60;99.90;;;;;;5046048;28;19912;-82
2021/12/29 01:31:08;;;;;;;;;;;2.60;99.90;;;;;;5037974;28;19916;-81
2021/12/29 01:33:34;;;;;;;;;;;2.60;99.90;;;;;;5037457;28;19919;-84
2021/12/29 01:35:59;;;;;;;;;;;2.60;99.90;;;;;;5038475;28;19955;-81
2021/12/29 01:38:25;;;;;;;;;;;2.60;99.90;;;;;;5053110;28;20054;-81
2021/12/29 01:40:50;;;;;;;;;;;2.60;99.90;;;;;;5035360;28;19919;-82
2021/12/29 01:43:17;;;;;;;;;;;2.70;99.90;;;;;;5038592;28;20248;-82
2021/12/29 01:45:42;;;;;;;;;;;2.70;99.90;;;;;;5033233;28;19988;-84
2021/12/29 01:48:08;;;;;;;;;;;2.70;99.90;;;;;;5037151;28;19916;-82
2021/12/29 01:50:35;;;;;;;;;;;2.70;99.90;;;;;;5034302;28;20416;-83
2021/12/29 01:53:08;;;;;;;;;;;2.70;99.90;;;;;;5038162;28;20026;-82
2021/12/29 01:55:34;;;;;;;;;;;2.70;99.90;;;;;;5037243;28;19908;-82
2021/12/29 01:57:59;;;;;;;;;;;2.70;99.90;;;;;;5037755;28;20399;-81
2021/12/29 02:00:26;;;;;;;;;;;2.60;99.90;;;;;;5038783;28;19944;-82
2021/12/29 02:02:52;;;;;;;;;;;2.60;99.90;;;;;;5036824;28;19912;-82
2021/12/29 02:05:18;;;;;;;;;;;2.60;99.90;;;;;;5035354;28;20122;-81
2021/12/29 02:07:44;;;;;;;;;;;2.70;99.90;;;;;;5040815;28;20439;-82
2021/12/29 02:10:10;;;;;;;;;;;2.70;99.90;;;;;;5042780;28;19931;-84
2021/12/29 02:12:36;;;;;;;;;;;2.70;99.90;;;;;;5054100;28;20386;-83
2021/12/29 02:15:02;;;;;;;;;;;2.60;99.90;;;;;;5054379;28;19924;-82
2021/12/29 02:17:28;;;;;;;;;;;2.60;99.90;;;;;;5035389;28;19920;-82
2021/12/29 02:19:57;;;;;;;;;;;2.50;99.90;;;;;;5051408;28;20380;-82
2021/12/29 02:25:22;;;;;;;;;;;2.50;99.90;;;;;;5050016;28;19923;-81
2021/12/29 02:27:49;;;;;;;;;;;2.50;99.90;;;;;;5035754;28;19920;-83
2021/12/29 02:30:17;;;;;;;;;;;2.40;99.90;;;;;;5033153;28;19915;-81
2021/12/29 02:32:43;;;;;;;;;;;2.40;99.90;;;;;;5032514;28;20436;-83
2021/12/29 02:35:09;;;;;;;;;;;2.40;99.90;;;;;;5035830;28;19963;-81
2021/12/29 02:37:35;;;;;;;;;;;2.50;99.90;;;;;;5036386;28;19909;-82
2021/12/29 02:40:00;;;;;;;;;;;2.50;99.90;;;;;;5036283;28;19962;-81
2021/12/29 02:42:29;;;;;;;;;;;2.50;99.90;;;;;;5037800;28;20314;-82
2021/12/29 02:44:54;;;;;;;;;;;2.50;99.90;;;;;;5033141;28;19927;-83
2021/12/29 02:47:20;;;;;;;;;;;2.50;99.90;;;;;;5038548;28;19908;-81
2021/12/29 02:49:46;;;;;;;;;;;2.50;99.90;;;;;;5038527;28;19917;-81
2021/12/29 02:52:14;;;;;;;;;;;2.50;99.90;;;;;;5043680;28;19909;-84
2021/12/29 02:54:40;;;;;;;;;;;2.60;99.90;;;;;;5034379;28;19916;-82
2021/12/29 02:57:05;;;;;;;;;;;2.60;99.90;;;;;;5034359;28;19908;-82
2021/12/29 02:59:31;;;;;;;;;;;2.60;99.90;;;;;;5050456;28;19916;-82
2021/12/29 03:01:56;;;;;;;;;;;2.60;99.90;;;;;;5036555;28;19990;-82
2021/12/29 03:04:22;;;;;;;;;;;2.60;99.90;;;;;;5036046;28;19912;-83
2021/12/29 03:06:47;;;;;;;;;;;2.70;99.90;;;;;;5037865;28;19913;-82
2021/12/29 03:09:16;;;;;;;;;;;2.70;99.90;;;;;;5040912;28;20011;-83
2021/12/29 03:11:41;;;;;;;;;;;2.70;99.90;;;;;;5038835;28;19915;-82
2021/12/29 03:14:07;;;;;;;;;;;2.70;99.90;;;;;;5046167;28;20290;-81
2021/12/29 03:16:33;;;;;;;;;;;2.70;99.90;;;;;;5039806;28;20019;-81
2021/12/29 03:18:59;;;;;;;;;;;2.70;99.90;;;;;;5041717;28;19908;-83
2021/12/29 03:21:25;;;;;;;;;;;2.70;99.90;;;;;;5040593;28;20225;-81
2021/12/29 03:23:51;;;;;;;;;;;2.80;99.90;;;;;;5042977;28;20490;-81
2021/12/29 03:26:17;;;;;;;;;;;2.80;99.90;;;;;;5031175;28;19947;-81
2021/12/29 03:28:43;;;;;;;;;;;2.90;99.90;;;;;;5035790;28;20348;-83
2021/12/29 03:31:11;;;;;;;;;;;2.80;99.90;;;;;;5030999;28;19999;-82
2021/12/29 03:33:37;;;;;;;;;;;2.70;99.90;;;;;;5041391;28;19912;-81
2021/12/29 03:36:03;;;;;;;;;;;2.70;99.90;;;;;;5045731;28;19908;-81
2021/12/29 03:38:30;;;;;;;;;;;2.60;99.90;;;;;;5053993;28;19939;-82
2021/12/29 03:40:56;;;;;;;;;;;2.70;99.90;;;;;;5038194;28;20134;-81
2021/12/29 03:43:22;;;;;;;;;;;2.70;99.90;;;;;;5040243;28;20565;-81
2021/12/29 03:45:52;;;;;;;;;;;2.60;99.90;;;;;;5042382;28;19923;-82
2021/12/29 03:48:19;;;;;;;;;;;2.70;99.90;;;;;;5037480;28;19912;-81
2021/12/29 03:50:46;;;;;;;;;;;2.80;99.90;;;;;;5037948;28;19959;-81
2021/12/29 03:53:13;;;;;;;;;;;2.90;99.90;;;;;;5054228;28;20323;-81
2021/12/29 03:55:40;;;;;;;;;;;2.90;99.90;;;;;;5052020;28;19908;-83
2021/12/29 03:58:05;;;;;;;;;;;2.90;99.90;;;;;;5038498;28;20437;-84
2021/12/29 04:00:31;;;;;;;;;;;3.00;99.90;;;;;;5053619;28;19966;-81
2021/12/29 04:02:56;;;;;;;;;;;2.90;99.90;;;;;;5044793;28;20296;-83
2021/12/29 04:05:23;;;;;;;;;;;2.90;99.90;;;;;;5035480;28;19943;-83
2021/12/29 04:07:49;;;;;;;;;;;2.80;99.90;;;;;;5044709;28;19917;-82
2021/12/29 04:10:15;;;;;;;;;;;3.00;99.90;;;;;;5039318;28;19912;-81
2021/12/29 04:12:40;;;;;;;;;;;3.00;99.90;;;;;;5052699;28;20337;-81
2021/12/29 04:15:07;;;;;;;;;;;2.90;99.90;;;;;;5050788;28;19932;-81
2021/12/29 04:17:39;;;;;;;;;;;2.80;99.90;;;;;;5051285;28;20285;-83
2021/12/29 04:22:55;;;;;;;;;;;2.80;99.90;;;;;;5053049;28;19924;-84
2021/12/29 04:25:24;;;;;;;;;;;2.80;99.90;;;;;;5038496;28;19912;-82
2021/12/29 04:27:50;;;;;;;;;;;2.80;99.90;;;;;;5038042;28;19912;-81
2021/12/29 04:30:16;;;;;;;;;;;2.70;99.90;;;;;;5037489;28;19915;-82
2021/12/29 04:32:41;;;;;;;;;;;2.70;99.90;;;;;;5037019;28;19917;-82
2021/12/29 04:35:07;;;;;;;;;;;2.70;99.90;;;;;;5036832;28;19912;-81
2021/12/29 04:37:32;;;;;;;;;;;2.70;99.90;;;;;;5035888;28;19987;-81
2021/12/29 04:39:58;;;;;;;;;;;2.80;99.90;;;;;;5039842;28;19947;-82
2021/12/29 04:42:23;;;;;;;;;;;2.70;99.90;;;;;;5035925;28;19913;-82
2021/12/29 04:44:49;;;;;;;;;;;2.70;99.90;;;;;;5054896;28;19963;-81
2021/12/29 04:47:14;;;;;;;;;;;2.70;99.90;;;;;;5053043;28;19913;-82
2021/12/29 04:49:41;;;;;;;;;;;2.80;99.90;;;;;;5034848;28;19940;-81
2021/12/29 04:52:10;;;;;;;;;;;2.80;99.90;;;;;;5036546;28;19913;-82
2021/12/29 04:54:37;;;;;;;;;;;2.80;99.90;;;;;;5050437;28;20046;-82
2021/12/29 04:57:03;;;;;;;;;;;2.80;99.90;;;;;;5035449;28;19913;-83
2021/12/29 04:59:28;;;;;;;;;;;2.80;99.90;;;;;;5035258;28;21187;-81
2021/12/29 05:01:54;;;;;;;;;;;2.90;99.90;;;;;;5051047;28;21483;-81
2021/12/29 05:04:22;;;;;;;;;;;2.90;99.90;;;;;;5044523;28;19974;-82
2021/12/29 05:09:32;;;;;;;;;;;2.90;99.90;;;;;;5053916;28;20417;-80
2021/12/29 05:12:01;;;;;;;;;;;2.90;99.90;;;;;;5036949;28;19912;-82
2021/12/29 05:14:27;;;;;;;;;;;2.90;99.90;;;;;;5051445;28;19916;-81
2021/12/29 05:16:53;;;;;;;;;;;2.90;99.90;;;;;;5037165;28;20273;-81
2021/12/29 05:19:18;;;;;;;;;;;2.90;99.90;;;;;;5053382;28;20258;-83
2021/12/29 05:21:44;;;;;;;;;;;2.90;99.90;;;;;;5039511;28;19920;-83
2021/12/29 05:24:09;;;;;;;;;;;2.80;99.90;;;;;;5051669;28;19913;-81
2021/12/29 05:26:35;;;;;;;;;;;2.80;99.90;;;;;;5049733;28;19908;-84
2021/12/29 05:29:01;;;;;;;;;;;2.80;99.90;;;;;;5037133;28;19909;-81
2021/12/29 05:31:27;;;;;;;;;;;2.80;99.90;;;;;;5037615;28;20364;-83
2021/12/29 05:33:53;;;;;;;;;;;2.80;99.90;;;;;;5051760;28;20038;-82
2021/12/29 05:36:19;;;;;;;;;;;2.90;99.90;;;;;;5036563;28;20280;-83
2021/12/29 05:38:44;;;;;;;;;;;2.90;99.90;;;;;;5036183;28;19915;-81
2021/12/29 05:41:10;;;;;;;;;;;2.90;99.90;;;;;;5038298;28;20328;-81
2021/12/29 05:43:35;;;;;;;;;;;2.90;99.90;;;;;;5051403;28;19923;-83
2021/12/29 05:46:01;;;;;;;;;;;2.90;99.90;;;;;;5036549;28;19972;-82
2021/12/29 05:48:26;;;;;;;;;;;2.90;99.90;;;;;;5037833;28;19915;-81
2021/12/29 05:50:52;;;;;;;;;;;2.90;99.90;;;;;;5034156;28;20272;-84
2021/12/29 05:53:17;;;;;;;;;;;3.00;99.90;;;;;;5035205;28;20011;-83
2021/12/29 05:55:43;;;;;;;;;;;3.00;99.90;;;;;;5034048;28;20331;-84
2021/12/29 05:58:09;;;;;;;;;;;3.00;99.90;;;;;;5041356;28;19913;-83
2021/12/29 06:00:37;;;;;;;;;;;3.00;99.90;;;;;;5033537;28;20635;-86
2021/12/29 06:03:03;;;;;;;;;;;3.00;99.90;;;;;;5032329;28;20106;-83
2021/12/29 06:05:28;;;;;;;;;;;3.10;99.90;;;;;;5048340;28;19915;-83
2021/12/29 06:07:54;;;;;;;;;;;3.10;99.90;;;;;;5036361;28;19919;-84
2021/12/29 06:10:19;;;;;;;;;;;3.10;99.90;;;;;;5054591;28;19912;-83
2021/12/29 06:12:45;;;;;;;;;;;3.10;99.90;;;;;;5034796;28;19944;-83
2021/12/29 06:15:10;;;;;;;;;;;3.10;99.90;;;;;;5031245;28;20392;-83
2021/12/29 06:17:36;;;;;;;;;;;3.20;99.90;;;;;;5032842;28;20003;-84
2021/12/29 06:20:03;;;;;;;;;;;3.10;99.90;;;;;;5030938;28;20032;-83
2021/12/29 06:22:28;;;;;;;;;;;3.10;99.90;;;;;;5031986;28;20329;-83
2021/12/29 06:24:54;;;;;;;;;;;3.10;99.90;;;;;;5032033;28;19923;-84
2021/12/29 06:27:20;;;;;;;;;;;3.10;99.90;;;;;;5032497;28;20223;-83
2021/12/29 06:29:45;;;;;;;;;;;3.20;99.90;;;;;;5032165;28;19909;-83
2021/12/29 06:32:11;;;;;;;;;;;3.10;99.90;;;;;;5035724;28;20471;-84
2021/12/29 06:34:37;;;;;;;;;;;3.20;99.90;;;;;;5031926;28;20400;-84
2021/12/29 06:37:08;;;;;;;;;;;3.20;99.90;;;;;;5033832;28;19939;-82
2021/12/29 06:39:34;;;;;;;;;;;3.20;99.90;;;;;;5033313;28;19912;-84
2021/12/29 06:41:59;;;;;;;;;;;3.20;99.90;;;;;;5035814;28;19912;-83
2021/12/29 06:44:25;;;;;;;;;;;3.20;99.90;;;;;;5036425;28;19920;-82
2021/12/29 06:46:50;;;;;;;;;;;3.30;99.90;;;;;;5036175;28;20011;-83
2021/12/29 06:49:16;;;;;;;;;;;3.20;99.90;;;;;;5043392;28;19909;-83
2021/12/29 06:51:41;;;;;;;;;;;3.20;99.90;;;;;;5034661;28;19912;-81
2021/12/29 06:54:07;;;;;;;;;;;3.20;99.90;;;;;;5035397;28;19983;-82
2021/12/29 06:56:32;;;;;;;;;;;3.20;99.90;;;;;;5037019;28;20015;-85
2021/12/29 06:58:58;;;;;;;;;;;3.20;99.90;;;;;;5034663;28;19967;-83
2021/12/29 07:01:23;;;;;;;;;;;3.30;99.90;;;;;;5034586;28;20669;-82
2021/12/29 07:03:49;;;;;;;;;;;3.30;99.90;;;;;;5035695;28;19919;-83
2021/12/29 07:06:14;;;;;;;;;;;3.30;99.90;;;;;;5042806;28;20365;-83
2021/12/29 07:08:40;;;;;;;;;;;3.30;99.90;;;;;;5037332;28;20300;-85
2021/12/29 07:11:06;;;;;;;;;;;3.30;99.90;;;;;;5037276;28;20000;-83
2021/12/29 07:13:31;;;;;;;;;;;3.30;99.90;;;;;;5037445;28;20550;-83
2021/12/29 07:15:57;;;;;;;;;;;3.30;99.90;;;;;;5037109;28;20335;-84
2021/12/29 07:18:22;;;;;;;;;;;3.40;99.90;;;;;;5036544;28;20011;-83
2021/12/29 07:20:48;;;;;;;;;;;3.40;99.90;;;;;;5034614;28;19917;-82
2021/12/29 07:23:13;;;;;;;;;;;3.40;99.90;;;;;;5036884;28;19919;-83
2021/12/29 07:25:39;;;;;;;;;;;3.40;99.90;;;;;;5041475;28;20423;-82
2021/12/29 07:28:04;;;;;;;;;;;3.40;99.90;;;;;;5042058;28;20039;-83
2021/12/29 07:30:30;;;;;;;;;;;3.40;99.90;;;;;;5042525;28;20348;-83
2021/12/29 07:32:55;;;;;;;;;;;3.40;99.90;;;;;;5031677;28;19917;-83
2021/12/29 07:35:21;;;;;;;;;;;3.50;99.90;;;;;;5034360;28;19913;-84
2021/12/29 07:37:46;;;;;;;;;;;3.50;99.90;;;;;;5034013;28;20365;-85
2021/12/29 07:40:12;;;;;;;;;;;3.50;99.90;;;;;;5032662;28;19917;-83
2021/12/29 07:42:39;;;;;;;;;;;3.50;99.90;;;;;;5033496;28;20035;-84
2021/12/29 07:45:07;;;;;;;;;;;3.60;99.90;;;;;;5033526;28;19924;-84
2021/12/29 07:47:39;;;;;;;;;;;3.50;99.90;;;;;;5035959;28;19913;-83
2021/12/29 07:50:05;;;;;;;;;;;3.60;99.90;;;;;;5041226;28;19912;-83
2021/12/29 07:52:30;;;;;;;;;;;3.60;99.90;;;;;;5036119;28;20519;-83
2021/12/29 07:54:56;;;;;;;;;;;3.60;99.90;;;;;;5032520;28;20287;-82
2021/12/29 07:57:21;;;;;;;;;;;3.60;99.90;;;;;;5034521;28;19909;-83
2021/12/29 07:59:47;;;;;;;;;;;3.60;99.90;;;;;;5036595;28;19916;-83
2021/12/29 08:02:16;;;;;;;;;;;3.60;99.90;;;;;;5034714;28;19995;-82
2021/12/29 08:04:41;;;;;;;;;;;3.60;99.90;;;;;;5032261;28;19984;-83
2021/12/29 08:07:07;;;;;;;;;;;3.60;99.90;;;;;;5031845;28;20441;-83
2021/12/29 08:09:32;;;;;;;;;;;3.70;99.90;;;;;;5036639;28;19912;-82
2021/12/29 08:11:58;;;;;;;;;;;3.70;99.90;;;;;;5034274;28;20011;-84
2021/12/29 08:14:23;;;;;;;;;;;3.70;99.90;;;;;;5037723;28;20418;-85
2021/12/29 08:16:49;;;;;;;;;;;3.70;99.90;;;;;;5045436;28;19912;-83
2021/12/29 08:19:16;;;;;;;;;;;3.80;99.90;;;;;;5036435;28;19913;-82
2021/12/29 08:21:42;;;;;;;;;;;3.80;99.90;;;;;;5034659;28;19931;-83
2021/12/29 08:24:07;;;;;;;;;;;3.80;99.90;;;;;;5053660;28;20411;-83
2021/12/29 08:26:33;;;;;;;;;;;3.80;99.90;;;;;;5034975;28;19912;-83
2021/12/29 08:29:01;;;;;;;;;;;3.80;99.90;;;;;;5037018;28;20841;-83
2021/12/29 08:31:26;;;;;;;;;;;3.80;99.90;;;;;;5038007;28;19913;-81
2021/12/29 08:33:52;;;;;;;;;;;3.80;99.90;;;;;;5036925;28;19975;-81
2021/12/29 08:36:18;;;;;;;;;;;3.90;99.90;;;;;;5052207;28;20591;-82
2021/12/29 08:38:43;;;;;;;;;;;3.90;99.90;;;;;;5033870;28;19913;-82
2021/12/29 08:41:10;;;;;;;;;;;3.90;99.90;;;;;;5037223;28;20000;-81
2021/12/29 08:43:35;;;;;;;;;;;3.90;99.90;;;;;;5037559;28;20461;-82
2021/12/29 08:46:01;;;;;;;;;;;3.90;99.90;;;;;;5052654;28;19919;-81
2021/12/29 08:48:27;;;;;;;;;;;3.90;99.90;;;;;;5035971;28;19912;-78
2021/12/29 08:50:54;;;;;;;;;;;4.00;99.90;;;;;;5038387;28;19909;-83
2021/12/29 08:53:19;;;;;;;;;;;3.90;99.90;;;;;;5053201;28;19933;-80
2021/12/29 08:55:48;;;;;;;;;;;4.00;99.90;;;;;;5053370;28;19913;-82
2021/12/29 08:58:16;;;;;;;;;;;4.00;99.90;;;;;;5053257;28;20566;-81
2021/12/29 09:00:44;;;;;;;;;;;4.00;99.90;;;;;;5036832;28;20007;-80
2021/12/29 09:03:10;;;;;;;;;;;4.00;99.90;;;;;;5037080;28;19916;-80
2021/12/29 09:05:36;;;;;;;;;;;4.00;99.90;;;;;;5042718;28;19908;-81
2021/12/29 09:08:03;;;;;;;;;;;4.00;99.90;;;;;;5048556;28;19908;-81
2021/12/29 09:10:28;;;;;;;;;;;4.10;99.90;;;;;;5061915;28;19909;-81
2021/12/29 09:12:55;;;;;;;;;;;4.10;99.90;;;;;;5039276;28;19966;-82
2021/12/29 09:15:20;;;;;;;;;;;4.10;99.90;;;;;;5035255;28;20373;-81
2021/12/29 09:17:46;;;;;;;;;;;4.10;99.90;;;;;;5044271;28;19912;-82
2021/12/29 09:20:24;;;;;;;;;;;4.20;99.90;;;;;;5034059;28;19972;-81
2021/12/29 09:22:50;;;;;;;;;;;4.20;99.90;;;;;;5042532;28;19958;-83
2021/12/29 09:25:15;;;;;;;;;;;4.10;99.90;;;;;;5033424;28;19916;-83
2021/12/29 09:27:42;;;;;;;;;;;4.20;99.90;;;;;;5036694;28;19919;-82
2021/12/29 09:30:07;;;;;;;;;;;4.20;99.90;;;;;;5034883;28;19962;-82
2021/12/29 09:32:33;;;;;;;;;;;4.20;99.90;;;;;;5032604;28;19917;-82
2021/12/29 09:35:00;;;;;;;;;;;4.20;99.90;;;;;;5036261;28;19959;-82
2021/12/29 09:37:26;;;;;;;;;;;4.20;99.90;;;;;;5035189;28;19909;-83
2021/12/29 09:39:51;;;;;;;;;;;4.30;99.90;;;;;;5036680;28;19999;-82
2021/12/29 09:42:17;;;;;;;;;;;4.30;99.90;;;;;;5033378;28;20451;-82
2021/12/29 09:44:42;;;;;;;;;;;4.30;99.90;;;;;;5034076;28;19920;-82
2021/12/29 09:47:10;;;;;;;;;;;4.50;99.90;;;;;;5034486;28;19916;-83
2021/12/29 09:49:37;;;;;;;;;;;4.50;99.90;;;;;;5038493;28;19920;-83
2021/12/29 09:52:04;;;;;;;;;;;4.60;99.90;;;;;;5033929;28;20291;-83
2021/12/29 09:54:29;;;;;;;;;;;4.50;99.90;;;;;;5035158;28;20305;-82
2021/12/29 09:56:55;;;;;;;;;;;4.40;99.90;;;;;;5039341;28;19909;-82
2021/12/29 09:59:20;;;;;;;;;;;4.40;99.90;;;;;;5034397;28;19909;-82
2021/12/29 10:01:46;;;;;;;;;;;4.40;99.90;;;;;;5032092;28;19912;-84
2021/12/29 10:04:13;;;;;;;;;;;4.40;99.90;;;;;;5034218;28;19913;-83
2021/12/29 10:06:38;;;;;;;;;;;4.50;99.90;;;;;;5039442;28;19912;-82
2021/12/29 10:09:14;;;;;;;;;;;4.40;99.90;;;;;;5034235;28;19920;-83
2021/12/29 10:11:40;;;;;;;;;;;4.40;99.90;;;;;;5032954;28;19958;-82
2021/12/29 10:14:08;;;;;;;;;;;4.40;99.90;;;;;;5034862;28;20360;-82
2021/12/29 10:16:33;;;;;;;;;;;4.40;99.90;;;;;;5054623;28;19966;-83
2021/12/29 10:19:00;;;;;;;;;;;4.40;99.90;;;;;;5037723;28;19913;-84
2021/12/29 10:21:26;;;;;;;;;;;4.40;99.90;;;;;;5053295;28;19995;-83
2021/12/29 10:23:53;;;;;;;;;;;4.40;99.90;;;;;;5040031;28;20046;-83
2021/12/29 10:26:19;;;;;;;;;;;4.50;99.90;;;;;;5036885;28;20481;-82
2021/12/29 10:28:47;;;;;;;;;;;4.50;99.90;;;;;;5045680;28;20410;-83
2021/12/29 10:31:17;;;;;;;;;;;4.50;99.90;;;;;;5042548;28;20315;-84
2021/12/29 10:33:45;;;;;;;;;;;4.50;99.90;;;;;;5051653;28;20280;-84
2021/12/29 10:36:16;;;;;;;;;;;4.50;99.90;;;;;;5034168;28;19915;-83
2021/12/29 10:38:43;;;;;;;;;;;4.50;99.90;;;;;;5052470;28;19913;-82
2021/12/29 10:41:09;;;;;;;;;;;4.50;99.90;;;;;;5036771;28;19908;-82
2021/12/29 10:43:36;;;;;;;;;;;4.60;99.90;;;;;;5036718;28;19917;-84
2021/12/29 10:46:02;;;;;;;;;;;4.60;99.90;;;;;;5034063;28;19912;-83
2021/12/29 10:48:30;;;;;;;;;;;4.60;99.90;;;;;;5037617;28;19978;-86
2021/12/29 10:50:57;;;;;;;;;;;4.60;99.90;;;;;;5052481;28;19935;-83
2021/12/29 10:53:22;;;;;;;;;;;4.60;99.90;;;;;;5036369;28;19921;-84
2021/12/29 10:55:48;;;;;;;;;;;4.70;99.90;;;;;;5038120;28;19968;-83
2021/12/29 10:58:18;;;;;;;;;;;4.80;99.90;;;;;;5037510;28;20351;-83
2021/12/29 11:00:45;;;;;;;;;;;4.80;99.90;;;;;;5034917;28;19912;-85
2021/12/29 11:03:14;;;;;;;;;;;4.80;99.90;;;;;;5039166;28;19915;-83
2021/12/29 11:05:42;;;;;;;;;;;4.80;99.90;;;;;;5052131;28;19919;-83
2021/12/29 11:08:10;;;;;;;;;;;4.80;99.90;;;;;;5037736;28;20296;-82
2021/12/29 11:10:36;;;;;;;;;;;4.80;99.90;;;;;;5038156;28;20410;-83
2021/12/29 11:13:02;;;;;;;;;;;4.80;99.90;;;;;;5031814;28;19915;-83
2021/12/29 11:15:39;;;;;;;;;;;4.80;99.90;;;;;;5037563;28;20451;-83
2021/12/29 11:18:09;;;;;;;;;;;4.80;99.90;;;;;;5048346;28;20357;-82
2021/12/29 11:20:35;;;;;;;;;;;4.80;99.90;;;;;;5021039;28;19916;-82
2021/12/29 11:23:12;;;;;;;;;;;4.80;99.90;;;;;;5043842;28;19912;-83
2021/12/29 11:25:39;;;;;;;;;;;4.90;99.90;;;;;;5050052;28;20004;-83
2021/12/29 11:28:05;;;;;;;;;;;4.90;99.90;;;;;;5040106;28;20438;-82
2021/12/29 11:30:31;;;;;;;;;;;4.90;99.90;;;;;;5035174;28;19917;-83
2021/12/29 11:33:05;;;;;;;;;;;5.00;99.90;;;;;;5058147;28;20627;-83
2021/12/29 11:35:30;;;;;;;;;;;4.90;99.90;;;;;;5035108;28;20012;-83
2021/12/29 11:37:57;;;;;;;;;;;5.00;99.90;;;;;;5039132;28;20344;-82
2021/12/29 11:40:26;;;;;;;;;;;5.00;99.90;;;;;;5037575;28;19920;-84
2021/12/29 11:42:52;;;;;;;;;;;5.00;99.90;;;;;;5035069;28;20353;-82
2021/12/29 11:45:19;;;;;;;;;;;5.00;99.90;;;;;;5019464;28;19912;-82
2021/12/29 11:47:44;;;;;;;;;;;5.00;99.90;;;;;;5039089;28;20406;-83
2021/12/29 11:50:12;;;;;;;;;;;5.10;99.90;;;;;;5052578;28;19940;-83
2021/12/29 11:52:42;;;;;;;;;;;5.10;99.90;;;;;;5040379;28;19912;-83
2021/12/29 11:55:19;;;;;;;;;;;5.10;99.90;;;;;;5028233;28;19916;-83
2021/12/29 11:57:44;;;;;;;;;;;5.10;99.90;;;;;;5038813;28;19923;-84
2021/12/29 12:00:10;;;;;;;;;;;5.10;99.90;;;;;;5037727;28;19909;-82
2021/12/29 12:02:36;;;;;;;;;;;5.10;99.90;;;;;;5035573;28;19913;-83
2021/12/29 12:05:03;;;;;;;;;;;5.10;99.90;;;;;;5037359;28;19958;-85
2021/12/29 12:07:28;;;;;;;;;;;5.10;99.90;;;;;;5022522;28;20383;-83
2021/12/29 12:09:56;;;;;;;;;;;5.20;99.90;;;;;;5038700;28;19938;-82
2021/12/29 12:12:32;;;;;;;;;;;5.20;99.90;;;;;;5040537;28;19915;-82
2021/12/29 12:14:57;;;;;;;;;;;5.30;99.90;;;;;;5055502;28;19938;-83
2021/12/29 12:17:27;;;;;;;;;;;5.20;99.90;;;;;;5036015;28;19912;-83
2021/12/29 12:20:04;;;;;;;;;;;5.30;99.90;;;;;;5035384;28;20356;-82
2021/12/29 12:22:39;;;;;;;;;;;5.30;99.90;;;;;;5039535;28;20225;-80
2021/12/29 12:25:05;;;;;;;;;;;5.30;99.90;;;;;;5051452;28;19909;-84
2021/12/29 12:27:32;;;;;;;;;;;5.30;99.90;;;;;;5036073;28;19940;-84
2021/12/29 12:30:11;;;;;;;;;;;5.30;99.90;;;;;;5038239;28;19940;-84
2021/12/29 12:32:42;;;;;;;;;;;5.40;99.90;;;;;;5034986;28;19924;-84
2021/12/29 12:35:08;;;;;;;;;;;5.40;99.90;;;;;;5035856;28;20275;-85
2021/12/29 12:37:35;;;;;;;;;;;5.40;99.90;;;;;;5038093;28;19995;-84
2021/12/29 12:40:09;;;;;;;;;;;5.40;99.90;;;;;;5049821;28;20003;-83
2021/12/29 12:42:35;;;;;;;;;;;5.40;99.90;;;;;;5037289;28;19940;-85
2021/12/29 12:45:01;;;;;;;;;;;5.40;99.90;;;;;;5035944;28;20344;-83
2021/12/29 12:47:28;;;;;;;;;;;5.50;99.90;;;;;;5034446;28;19917;-82
2021/12/29 12:49:53;;;;;;;;;;;5.40;99.90;;;;;;5034080;28;19923;-83
2021/12/29 12:52:23;;;;;;;;;;;5.60;99.90;;;;;;5051560;28;19912;-83
2021/12/29 12:54:53;;;;;;;;;;;5.50;99.90;;;;;;5034330;28;19924;-82
2021/12/29 12:57:31;;;;;;;;;;;5.50;99.90;;;;;;5036827;28;19912;-84
2021/12/29 13:00:05;;;;;;;;;;;5.60;99.90;;;;;;5039741;28;19913;-82
2021/12/29 13:02:35;;;;;;;;;;;5.60;99.90;;;;;;5035027;28;20361;-82
2021/12/29 13:05:21;;;;;;;;;;;5.50;99.90;;;;;;5043628;28;19991;-83
2021/12/29 13:07:57;;;;;;;;;;;5.50;99.90;;;;;;5042056;28;19936;-84
2021/12/29 13:10:25;;;;;;;;;;;5.60;99.90;;;;;;5034523;28;20419;-82
2021/12/29 13:12:57;;;;;;;;;;;5.60;99.90;;;;;;5033959;28;19920;-82
2021/12/29 13:15:23;;;;;;;;;;;5.60;99.90;;;;;;5050978;28;20085;-82
2021/12/29 13:17:49;;;;;;;;;;;5.50;99.90;;;;;;5038051;28;20012;-85
2021/12/29 13:20:14;;;;;;;;;;;5.50;99.90;;;;;;5034070;28;20450;-83
2021/12/29 13:22:41;;;;;;;;;;;5.60;99.90;;;;;;5048979;28;19909;-83
2021/12/29 13:25:07;;;;;;;;;;;5.60;99.90;;;;;;5050571;28;20313;-83
2021/12/29 13:27:32;;;;;;;;;;;5.60;99.90;;;;;;5036502;28;20033;-83
2021/12/29 13:29:59;;;;;;;;;;;5.60;99.90;;;;;;5035953;28;19913;-83
2021/12/29 13:32:25;;;;;;;;;;;5.60;99.90;;;;;;5050086;28;20386;-82
2021/12/29 13:34:58;;;;;;;;;;;5.80;99.90;;;;;;5036652;28;19916;-82
2021/12/29 13:37:23;;;;;;;;;;;5.90;99.90;;;;;;5047162;28;20217;-84
2021/12/29 13:39:52;;;;;;;;;;;5.80;99.90;;;;;;5036907;28;19916;-82
2021/12/29 13:42:18;;;;;;;;;;;5.70;99.90;;;;;;5034055;28;20026;-82
2021/12/29 13:44:43;;;;;;;;;;;5.60;99.90;;;;;;5051967;28;19913;-84
2021/12/29 13:47:08;;;;;;;;;;;5.60;99.90;;;;;;5051594;28;19912;-85
2021/12/29 13:49:34;;;;;;;;;;;5.60;99.90;;;;;;5033658;28;19913;-84
2021/12/29 13:51:59;;;;;;;;;;;5.60;99.90;;;;;;5035812;28;20217;-82
2021/12/29 13:54:27;;;;;;;;;;;5.60;99.90;;;;;;5049138;28;19998;-82
2021/12/29 13:56:53;;;;;;;;;;;5.60;99.90;;;;;;5034203;28;20484;-84
2021/12/29 13:59:20;;;;;;;;;;;5.60;99.90;;;;;;5035642;28;19912;-83
2021/12/29 14:01:45;;;;;;;;;;;5.60;99.90;;;;;;5032177;28;20276;-82
2021/12/29 14:04:14;;;;;;;;;;;5.60;99.90;;;;;;5048412;28;19915;-83
2021/12/29 14:06:39;;;;;;;;;;;5.60;99.90;;;;;;5036698;28;20364;-82
2021/12/29 14:09:07;;;;;;;;;;;5.60;99.90;;;;;;5042459;28;19913;-82
2021/12/29 14:11:36;;;;;;;;;;;5.60;99.90;;;;;;5021039;28;19999;-84
2021/12/29 14:14:03;;;;;;;;;;;5.60;99.90;;;;;;5025271;28;19916;-84
2021/12/29 14:16:31;;;;;;;;;;;5.50;99.90;;;;;;4995207;28;19925;-83
2021/12/29 14:18:57;;;;;;;;;;;5.60;99.90;;;;;;5025429;28;19923;-84
2021/12/29 14:21:25;;;;;;;;;;;5.60;99.90;;;;;;5033778;28;19912;-84
2021/12/29 14:23:53;;;;;;;;;;;5.60;99.90;;;;;;5051220;28;19936;-83
2021/12/29 14:26:18;;;;;;;;;;;5.60;99.90;;;;;;5053061;28;20612;-82
2021/12/29 14:28:54;;;;;;;;;;;5.50;99.90;;;;;;5038238;28;20004;-83
2021/12/29 14:31:20;;;;;;;;;;;5.50;99.90;;;;;;5049789;28;19909;-84
2021/12/29 14:33:48;;;;;;;;;;;5.50;99.90;;;;;;5034382;28;19919;-82
2021/12/29 14:36:14;;;;;;;;;;;5.50;99.90;;;;;;5042658;28;19912;-83
2021/12/29 14:38:40;;;;;;;;;;;5.50;99.90;;;;;;5033416;28;19917;-83